createdAt,value
2018-05-21T00:01:34.660Z,2.13
2018-05-21T00:04:02.586Z,2.53
2018-05-21T00:06:30.836Z,2.40
2018-05-21T00:08:58.750Z,2.40
2018-05-21T00:11:26.686Z,1.97
2018-05-21T00:13:54.590Z,2.30
2018-05-21T00:16:22.506Z,1.90
2018-05-21T00:18:50.404Z,2.07
2018-05-21T00:21:18.356Z,2.57
2018-05-21T00:23:46.394Z,3.00
2018-05-21T00:26:14.300Z,2.73
2018-05-21T00:28:42.344Z,2.60
2018-05-21T00:31:10.243Z,2.60
2018-05-21T00:33:38.148Z,2.60
2018-05-21T00:36:06.065Z,2.80
2018-05-21T00:38:34.080Z,2.20
2018-05-21T00:41:02.019Z,2.93
2018-05-21T00:43:29.926Z,2.73
2018-05-21T00:45:57.871Z,1.90
2018-05-21T00:48:25.793Z,2.30
2018-05-21T00:50:53.685Z,2.57
2018-05-21T00:53:21.595Z,2.63
2018-05-21T00:55:49.580Z,2.30
2018-05-21T00:58:17.618Z,3.43
2018-05-21T01:00:45.517Z,2.60
2018-05-21T01:03:13.480Z,3.10
2018-05-21T01:05:41.459Z,2.10
2018-05-21T01:08:09.574Z,1.63
2018-05-21T01:10:37.484Z,2.10
2018-05-21T01:13:05.412Z,2.27
2018-05-21T01:15:33.320Z,2.03
2018-05-21T01:18:01.258Z,3.80
2018-05-21T01:20:29.168Z,1.90
2018-05-21T01:22:57.088Z,2.77
2018-05-21T01:25:24.993Z,2.10
2018-05-21T01:27:53.026Z,2.00
2018-05-21T01:30:21.017Z,2.10
2018-05-21T01:32:49.189Z,3.23
2018-05-21T01:35:17.111Z,2.20
2018-05-21T01:37:45.037Z,2.07
2018-05-21T01:40:13.004Z,2.30
2018-05-21T01:42:40.911Z,1.97
2018-05-21T01:45:08.830Z,2.03
2018-05-21T01:47:36.778Z,2.40
2018-05-21T01:50:04.696Z,2.53
2018-05-21T01:52:32.603Z,2.70
2018-05-21T01:55:00.547Z,2.97
2018-05-21T01:57:28.484Z,3.27
2018-05-21T01:59:56.539Z,2.60
2018-05-21T02:02:24.428Z,2.40
2018-05-21T02:04:52.367Z,2.50
2018-05-21T02:07:20.275Z,3.07
2018-05-21T02:09:48.184Z,2.67
2018-05-21T02:12:16.261Z,2.40
2018-05-21T02:14:44.153Z,2.23
2018-05-21T02:17:12.088Z,2.07
2018-05-21T02:19:40.077Z,2.67
2018-05-21T02:22:08.038Z,2.33
2018-05-21T02:24:35.949Z,2.00
2018-05-21T02:27:03.877Z,2.43
2018-05-21T02:29:31.802Z,2.80
2018-05-21T02:31:59.722Z,2.60
2018-05-21T02:34:27.665Z,3.07
2018-05-21T02:36:56.424Z,3.07
2018-05-21T02:39:24.298Z,3.73
2018-05-21T02:41:52.416Z,2.97
2018-05-21T02:44:20.315Z,3.60
2018-05-21T02:46:48.220Z,3.17
2018-05-21T02:49:16.150Z,3.07
2018-05-21T02:51:44.075Z,3.10
2018-05-21T02:54:11.968Z,3.00
2018-05-21T02:56:39.884Z,3.00
2018-05-21T02:59:07.802Z,3.03
2018-05-21T03:01:35.728Z,2.97
2018-05-21T03:04:03.638Z,3.30
2018-05-21T03:06:31.632Z,2.93
2018-05-21T03:08:59.564Z,3.40
2018-05-21T03:11:27.556Z,2.30
2018-05-21T03:13:55.566Z,2.67
2018-05-21T03:16:24.508Z,2.60
2018-05-21T03:18:52.625Z,2.90
2018-05-21T03:21:20.662Z,2.40
2018-05-21T03:23:48.564Z,2.73
2018-05-21T03:26:16.538Z,2.67
2018-05-21T03:28:44.436Z,3.03
2018-05-21T03:31:12.360Z,2.63
2018-05-21T03:33:40.298Z,3.67
2018-05-21T03:36:08.207Z,2.73
2018-05-21T03:38:36.113Z,2.80
2018-05-21T03:41:04.068Z,2.80
2018-05-21T03:43:31.971Z,2.80
2018-05-21T03:45:59.901Z,2.80
2018-05-21T03:48:27.807Z,2.60
2018-05-21T03:50:55.732Z,2.50
2018-05-21T03:53:23.660Z,2.40
2018-05-21T03:55:51.636Z,3.60
2018-05-21T03:58:31.438Z,2.03
2018-05-21T04:01:11.115Z,3.13
2018-05-21T04:03:55.983Z,2.23
2018-05-21T04:06:23.987Z,2.57
2018-05-21T04:08:51.904Z,3.13
2018-05-21T04:11:19.825Z,2.50
2018-05-21T04:13:47.738Z,2.50
2018-05-21T04:16:15.685Z,2.27
2018-05-21T04:18:43.691Z,3.07
2018-05-21T04:21:11.595Z,2.50
2018-05-21T04:23:39.538Z,2.60
2018-05-21T04:26:07.453Z,2.27
2018-05-21T04:28:35.364Z,2.90
2018-05-21T04:31:03.271Z,2.53
2018-05-21T04:33:31.203Z,2.10
2018-05-21T04:35:59.107Z,2.37
2018-05-21T04:38:27.048Z,2.70
2018-05-21T04:40:54.986Z,2.10
2018-05-21T04:43:22.926Z,2.00
2018-05-21T04:45:50.851Z,2.53
2018-05-21T04:48:19.030Z,2.27
2018-05-21T04:50:46.934Z,2.63
2018-05-21T04:53:14.881Z,1.97
2018-05-21T04:55:42.786Z,2.40
2018-05-21T04:58:11.196Z,2.20
2018-05-21T05:00:39.456Z,2.40
2018-05-21T05:03:07.419Z,2.27
2018-05-21T05:05:35.331Z,2.17
2018-05-21T05:08:03.262Z,2.47
2018-05-21T05:10:31.182Z,1.93
2018-05-21T05:12:59.135Z,2.53
2018-05-21T05:15:27.127Z,1.90
2018-05-21T05:17:55.093Z,3.20
2018-05-21T05:20:23.027Z,2.50
2018-05-21T05:22:50.944Z,3.00
2018-05-21T05:25:18.870Z,2.90
2018-05-21T05:27:46.773Z,2.23
2018-05-21T05:30:14.746Z,2.63
2018-05-21T05:32:42.659Z,2.67
2018-05-21T05:35:10.619Z,2.70
2018-05-21T05:37:38.526Z,2.63
2018-05-21T05:40:06.440Z,2.80
2018-05-21T05:42:34.352Z,3.33
2018-05-21T05:45:02.278Z,2.40
2018-05-21T05:47:30.216Z,2.87
2018-05-21T05:49:58.124Z,2.60
2018-05-21T05:52:26.062Z,2.97
2018-05-21T05:54:53.984Z,2.67
2018-05-21T05:57:21.929Z,2.70
2018-05-21T05:59:50.648Z,2.40
2018-05-21T06:02:18.555Z,3.00
2018-05-21T06:04:46.467Z,3.20
2018-05-21T06:07:14.395Z,3.17
2018-05-21T06:09:42.821Z,3.10
2018-05-21T06:12:10.784Z,3.30
2018-05-21T06:14:38.725Z,2.77
2018-05-21T06:17:07.591Z,2.70
2018-05-21T06:19:35.584Z,2.77
2018-05-21T06:22:03.528Z,2.90
2018-05-21T06:24:31.466Z,3.43
2018-05-21T06:26:59.380Z,3.33
2018-05-21T06:29:27.317Z,3.07
2018-05-21T06:31:55.467Z,2.90
2018-05-21T06:34:23.524Z,3.47
2018-05-21T06:36:51.335Z,3.60
2018-05-21T06:39:19.279Z,3.03
2018-05-21T06:41:47.227Z,3.07
2018-05-21T06:44:15.142Z,3.10
2018-05-21T06:46:43.072Z,4.00
2018-05-21T06:49:11.032Z,3.50
2018-05-21T06:51:39.035Z,3.90
2018-05-21T06:54:07.023Z,3.47
2018-05-21T06:56:35.063Z,2.97
2018-05-21T06:59:03.578Z,3.43
2018-05-21T07:01:31.508Z,3.37
2018-05-21T07:03:59.446Z,3.70
2018-05-21T07:06:27.377Z,2.90
2018-05-21T07:08:55.299Z,2.70
2018-05-21T07:11:23.267Z,3.20
2018-05-21T07:13:51.216Z,2.90
2018-05-21T07:16:19.142Z,3.60
2018-05-21T07:18:47.048Z,3.67
2018-05-21T07:21:14.978Z,2.93
2018-05-21T07:23:42.891Z,3.67
2018-05-21T07:26:10.803Z,3.47
2018-05-21T07:28:38.806Z,3.17
2018-05-21T07:31:06.730Z,3.20
2018-05-21T07:33:34.667Z,3.53
2018-05-21T07:36:02.671Z,3.17
2018-05-21T07:38:30.688Z,2.90
2018-05-21T07:40:58.655Z,3.20
2018-05-21T07:43:26.572Z,3.30
2018-05-21T07:45:54.501Z,3.50
2018-05-21T07:48:22.524Z,3.00
2018-05-21T07:50:50.480Z,3.00
2018-05-21T07:53:18.576Z,3.63
2018-05-21T07:55:46.519Z,3.20
2018-05-21T07:58:14.501Z,2.77
2018-05-21T08:00:42.395Z,2.73
2018-05-21T08:03:10.353Z,2.77
2018-05-21T08:05:38.267Z,3.20
2018-05-21T08:08:06.252Z,3.40
2018-05-21T08:10:34.232Z,2.90
2018-05-21T08:13:02.144Z,3.00
2018-05-21T08:15:30.238Z,2.77
2018-05-21T08:17:58.165Z,3.00
2018-05-21T08:20:26.102Z,3.40
2018-05-21T08:22:53.987Z,2.70
2018-05-21T08:25:21.971Z,3.00
2018-05-21T08:27:50.001Z,2.97
2018-05-21T08:30:17.926Z,3.03
2018-05-21T08:32:45.825Z,2.90
2018-05-21T08:35:13.788Z,3.20
2018-05-21T08:37:41.702Z,2.83
2018-05-21T08:40:09.652Z,2.90
2018-05-21T08:42:37.607Z,3.20
2018-05-21T08:45:05.493Z,3.20
2018-05-21T08:47:34.268Z,3.87
2018-05-21T08:50:02.192Z,2.60
2018-05-21T08:52:30.113Z,8.93
2018-05-21T08:54:58.026Z,14.73
2018-05-21T08:57:25.975Z,4.50
2018-05-21T08:59:53.898Z,3.20
2018-05-21T09:02:21.808Z,3.30
2018-05-21T09:04:49.777Z,2.70
2018-05-21T09:07:17.660Z,2.80
2018-05-21T09:09:46.268Z,3.30
2018-05-21T09:12:14.203Z,3.80
2018-05-21T09:14:42.130Z,3.10
2018-05-21T09:17:10.632Z,2.63
2018-05-21T09:19:38.546Z,3.20
2018-05-21T09:22:06.466Z,3.23
2018-05-21T09:24:34.380Z,3.57
2018-05-21T09:27:02.393Z,2.40
2018-05-21T09:29:31.279Z,2.37
2018-05-21T09:31:59.195Z,2.40
2018-05-21T09:34:27.104Z,2.33
2018-05-21T09:36:55.030Z,2.20
2018-05-21T09:39:22.937Z,2.40
2018-05-21T09:41:50.927Z,3.03
2018-05-21T09:44:18.832Z,2.57
2018-05-21T09:46:46.770Z,2.40
2018-05-21T09:49:15.249Z,2.50
2018-05-21T09:51:43.165Z,2.53
2018-05-21T09:54:11.117Z,2.57
2018-05-21T09:56:39.080Z,2.60
2018-05-21T09:59:07.031Z,2.50
2018-05-21T10:01:34.923Z,2.63
2018-05-21T10:04:02.861Z,2.87
2018-05-21T10:06:30.816Z,2.30
2018-05-21T10:08:58.758Z,2.30
2018-05-21T10:11:26.732Z,1.90
2018-05-21T10:13:54.986Z,2.30
2018-05-21T10:16:23.421Z,2.30
2018-05-21T10:18:51.356Z,2.30
2018-05-21T10:21:19.339Z,2.67
2018-05-21T10:23:47.783Z,2.53
2018-05-21T10:26:15.698Z,1.83
2018-05-21T10:28:43.656Z,3.20
2018-05-21T10:31:11.633Z,2.60
2018-05-21T10:33:39.517Z,2.07
2018-05-21T10:36:07.451Z,1.90
2018-05-21T10:38:35.365Z,1.90
2018-05-21T10:41:04.268Z,1.93
2018-05-21T10:43:32.196Z,2.17
2018-05-21T10:46:00.219Z,2.40
2018-05-21T10:48:28.153Z,2.10
2018-05-21T10:50:56.094Z,2.37
2018-05-21T10:53:24.107Z,2.13
2018-05-21T10:55:52.027Z,1.70
2018-05-21T10:58:19.967Z,2.97
2018-05-21T11:00:48.417Z,2.30
2018-05-21T11:03:17.663Z,2.80
2018-05-21T11:05:45.586Z,2.30
2018-05-21T11:08:13.539Z,2.47
2018-05-21T11:10:41.464Z,2.10
2018-05-21T11:13:09.377Z,1.80
2018-05-21T11:15:37.324Z,2.07
2018-05-21T11:18:05.221Z,1.70
2018-05-21T11:20:33.219Z,3.00
2018-05-21T11:23:01.369Z,2.40
2018-05-21T11:25:29.302Z,1.80
2018-05-21T11:27:57.214Z,1.93
2018-05-21T11:30:25.139Z,2.00
2018-05-21T11:32:53.036Z,2.40
2018-05-21T11:35:20.962Z,2.20
2018-05-21T11:37:48.867Z,2.10
2018-05-21T11:40:16.803Z,1.77
2018-05-21T11:42:44.728Z,1.53
2018-05-21T11:45:12.628Z,2.20
2018-05-21T11:47:40.537Z,2.10
2018-05-21T11:50:08.451Z,2.13
2018-05-21T11:52:36.606Z,2.37
2018-05-21T11:55:04.499Z,2.10
2018-05-21T11:57:32.489Z,2.27
2018-05-21T12:00:00.361Z,3.00
2018-05-21T12:02:28.282Z,2.10
2018-05-21T12:04:56.266Z,1.80
2018-05-21T12:07:24.169Z,1.80
2018-05-21T12:09:52.179Z,1.97
2018-05-21T12:12:20.076Z,1.97
2018-05-21T12:14:48.041Z,1.70
2018-05-21T12:17:16.031Z,1.80
2018-05-21T12:19:43.945Z,1.90
2018-05-21T12:22:11.864Z,4.90
2018-05-21T12:24:39.827Z,2.07
2018-05-21T12:27:07.778Z,1.97
2018-05-21T12:29:35.843Z,2.20
2018-05-21T12:32:03.782Z,2.40
2018-05-21T12:34:31.678Z,2.20
2018-05-21T12:36:59.591Z,1.90
2018-05-21T12:39:27.490Z,2.10
2018-05-21T12:41:55.486Z,2.57
2018-05-21T12:44:23.374Z,2.37
2018-05-21T12:46:51.390Z,2.07
2018-05-21T12:49:19.330Z,2.13
2018-05-21T12:51:47.239Z,2.30
2018-05-21T12:54:15.254Z,2.17
2018-05-21T12:56:43.171Z,2.33
2018-05-21T12:59:11.083Z,3.27
2018-05-21T13:01:39.068Z,2.47
2018-05-21T13:04:06.992Z,2.00
2018-05-21T13:06:34.900Z,2.40
2018-05-21T13:09:02.883Z,2.67
2018-05-21T13:11:30.758Z,2.30
2018-05-21T13:13:58.950Z,2.40
2018-05-21T13:16:26.867Z,2.13
2018-05-21T13:18:54.783Z,2.40
2018-05-21T13:21:23.260Z,2.73
2018-05-21T13:23:51.908Z,2.00
2018-05-21T13:26:19.811Z,2.10
2018-05-21T13:28:47.713Z,2.10
2018-05-21T13:31:15.647Z,2.07
2018-05-21T13:33:43.535Z,2.23
2018-05-21T13:36:11.488Z,2.50
2018-05-21T13:38:39.404Z,2.10
2018-05-21T13:41:07.319Z,2.10
2018-05-21T13:43:35.511Z,2.30
2018-05-21T13:46:03.415Z,2.60
2018-05-21T13:48:31.349Z,2.87
2018-05-21T13:50:59.273Z,2.43
2018-05-21T13:53:27.187Z,2.40
2018-05-21T13:55:55.093Z,2.17
2018-05-21T13:58:22.991Z,2.47
2018-05-21T14:00:50.954Z,2.50
2018-05-21T14:03:18.895Z,2.23
2018-05-21T14:05:47.012Z,1.83
2018-05-21T14:08:14.843Z,2.27
2018-05-21T14:10:42.768Z,2.37
2018-05-21T14:13:10.667Z,2.00
2018-05-21T14:15:39.156Z,2.93
2018-05-21T14:18:07.056Z,1.80
2018-05-21T14:20:35.012Z,1.97
2018-05-21T14:23:02.940Z,2.00
2018-05-21T14:25:30.998Z,2.63
2018-05-21T14:27:58.845Z,2.17
2018-05-21T14:30:26.764Z,2.20
2018-05-21T14:32:54.914Z,2.20
2018-05-21T14:35:22.880Z,2.23
2018-05-21T14:37:50.811Z,1.53
2018-05-21T14:40:18.725Z,2.13
2018-05-21T14:42:46.670Z,2.53
2018-05-21T14:45:14.650Z,2.83
2018-05-21T14:47:42.586Z,1.87
2018-05-21T14:50:10.487Z,2.07
2018-05-21T14:52:39.275Z,1.90
2018-05-21T14:55:07.233Z,2.23
2018-05-21T14:57:35.112Z,2.17
2018-05-21T15:00:03.046Z,2.73
2018-05-21T15:02:30.987Z,2.10
2018-05-21T15:04:58.944Z,2.30
2018-05-21T15:07:26.884Z,1.93
2018-05-21T15:09:54.795Z,1.97
2018-05-21T15:12:22.726Z,1.87
2018-05-21T15:14:50.620Z,1.80
2018-05-21T15:17:18.556Z,2.10
2018-05-21T15:19:46.473Z,2.47
2018-05-21T15:22:14.416Z,1.90
2018-05-21T15:24:42.309Z,1.70
2018-05-21T15:27:10.247Z,1.70
2018-05-21T15:29:38.157Z,2.40
2018-05-21T15:32:06.125Z,2.20
2018-05-21T15:34:34.658Z,2.17
2018-05-21T15:37:02.594Z,1.97
2018-05-21T15:39:30.505Z,2.23
2018-05-21T15:41:58.427Z,2.03
2018-05-21T15:44:26.348Z,2.40
2018-05-21T15:46:54.281Z,1.87
2018-05-21T15:49:22.200Z,1.87
2018-05-21T15:51:50.109Z,1.77
2018-05-21T15:54:18.044Z,1.97
2018-05-21T15:56:45.949Z,1.70
2018-05-21T15:59:13.868Z,1.97
2018-05-21T16:01:41.812Z,2.10
2018-05-21T16:04:09.713Z,1.87
2018-05-21T16:06:37.634Z,1.70
2018-05-21T16:09:05.547Z,1.90
2018-05-21T16:11:33.450Z,1.63
2018-05-21T16:14:01.352Z,1.80
2018-05-21T16:16:29.296Z,1.60
2018-05-21T16:18:57.214Z,1.43
2018-05-21T16:21:25.139Z,1.80
2018-05-21T16:23:53.151Z,2.30
2018-05-21T16:26:21.072Z,1.67
2018-05-21T16:28:48.982Z,1.73
2018-05-21T16:31:16.918Z,2.53
2018-05-21T16:33:45.026Z,2.50
2018-05-21T16:36:12.933Z,2.30
2018-05-21T16:38:40.834Z,2.33
2018-05-21T16:41:08.845Z,2.03
2018-05-21T16:43:36.895Z,1.60
2018-05-21T16:46:04.808Z,1.93
2018-05-21T16:48:32.762Z,2.00
2018-05-21T16:51:00.692Z,2.00
2018-05-21T16:53:28.755Z,2.03
2018-05-21T16:55:56.655Z,1.80
2018-05-21T16:58:24.589Z,1.90
2018-05-21T17:00:52.507Z,2.47
2018-05-21T17:03:20.493Z,1.70
2018-05-21T17:05:48.411Z,1.90
2018-05-21T17:08:16.316Z,1.90
2018-05-21T17:10:44.230Z,2.10
2018-05-21T17:13:12.146Z,1.90
2018-05-21T17:15:40.067Z,2.30
2018-05-21T17:18:08.702Z,2.10
2018-05-21T17:20:36.612Z,2.20
2018-05-21T17:23:04.540Z,1.90
2018-05-21T17:25:32.474Z,1.90
2018-05-21T17:28:00.409Z,1.73
2018-05-21T17:30:28.331Z,2.20
2018-05-21T17:32:56.260Z,1.70
2018-05-21T17:35:24.223Z,1.97
2018-05-21T17:37:52.131Z,2.37
2018-05-21T17:40:20.048Z,1.90
2018-05-21T17:42:48.873Z,1.63
2018-05-21T17:45:16.798Z,2.40
2018-05-21T17:47:44.715Z,2.43
2018-05-21T17:50:12.662Z,2.27
2018-05-21T17:52:41.549Z,2.83
2018-05-21T17:55:09.480Z,2.30
2018-05-21T17:57:38.392Z,2.60
2018-05-21T18:00:06.289Z,5.93
2018-05-21T18:02:34.188Z,3.57
2018-05-21T18:05:02.123Z,6.00
2018-05-21T18:07:30.041Z,4.77
2018-05-21T18:09:57.943Z,2.40
2018-05-21T18:12:25.864Z,2.37
2018-05-21T18:14:53.775Z,2.10
2018-05-21T18:17:21.699Z,2.40
2018-05-21T18:19:49.629Z,2.00
2018-05-21T18:22:17.561Z,4.43
2018-05-21T18:24:45.472Z,2.40
2018-05-21T18:27:13.392Z,1.70
2018-05-21T18:29:41.297Z,2.87
2018-05-21T18:32:09.233Z,2.17
2018-05-21T18:34:37.139Z,2.50
2018-05-21T18:37:05.074Z,2.60
2018-05-21T18:39:32.961Z,2.50
2018-05-21T18:42:00.932Z,2.17
2018-05-21T18:44:28.841Z,2.40
2018-05-21T18:46:56.760Z,1.97
2018-05-21T18:49:24.714Z,2.67
2018-05-21T18:51:52.636Z,1.80
2018-05-21T18:54:20.547Z,2.53
2018-05-21T18:56:48.494Z,2.00
2018-05-21T18:59:16.387Z,2.60
2018-05-21T19:01:44.341Z,2.73
2018-05-21T19:04:13.064Z,3.10
2018-05-21T19:06:40.971Z,2.60
2018-05-21T19:09:08.880Z,2.30
2018-05-21T19:11:36.825Z,3.63
2018-05-21T19:14:04.757Z,3.03
2018-05-21T19:16:32.709Z,2.70
2018-05-21T19:19:00.641Z,2.43
2018-05-21T19:21:28.555Z,2.20
2018-05-21T19:23:56.529Z,2.80
2018-05-21T19:26:24.510Z,18.90
2018-05-21T19:28:52.442Z,28.40
2018-05-21T19:31:20.435Z,24.33
2018-05-21T19:33:48.415Z,16.90
2018-05-21T19:36:16.372Z,16.37
2018-05-21T19:38:44.283Z,9.70
2018-05-21T19:41:12.211Z,8.90
2018-05-21T19:43:40.154Z,5.50
2018-05-21T19:46:08.097Z,3.17
2018-05-21T19:48:36.012Z,3.13
2018-05-21T19:51:04.016Z,2.57
2018-05-21T19:53:31.944Z,2.20
2018-05-21T19:56:00.069Z,2.63
2018-05-21T19:58:27.978Z,2.30
2018-05-21T20:00:55.887Z,2.77
2018-05-21T20:03:23.806Z,2.67
2018-05-21T20:05:51.740Z,2.50
2018-05-21T20:08:19.825Z,2.67
2018-05-21T20:10:47.855Z,2.20
2018-05-21T20:13:15.792Z,2.90
2018-05-21T20:15:43.729Z,2.70
2018-05-21T20:18:11.620Z,2.87
2018-05-21T20:20:41.523Z,4.10
2018-05-21T20:23:09.437Z,3.27
2018-05-21T20:25:37.376Z,3.80
2018-05-21T20:28:05.295Z,2.43
2018-05-21T20:30:33.285Z,3.10
2018-05-21T20:33:01.235Z,2.37
2018-05-21T20:35:29.227Z,2.87
2018-05-21T20:37:57.139Z,3.63
2018-05-21T20:40:25.051Z,4.00
2018-05-21T20:42:53.037Z,2.67
2018-05-21T20:45:21.040Z,2.60
2018-05-21T20:47:48.915Z,2.63
2018-05-21T20:50:16.873Z,2.70
2018-05-21T20:52:44.939Z,3.00
2018-05-21T20:55:12.844Z,2.40
2018-05-21T20:57:40.774Z,2.90
2018-05-21T21:00:08.682Z,28.67
2018-05-21T21:02:36.658Z,19.43
2018-05-21T21:05:04.712Z,25.40
2018-05-21T21:07:32.654Z,65.77
2018-05-21T21:10:00.571Z,29.10
2018-05-21T21:12:28.499Z,17.97
2018-05-21T21:14:56.619Z,6.83
2018-05-21T21:17:24.518Z,6.83
2018-05-21T21:19:52.463Z,2.70
2018-05-21T21:22:20.415Z,4.30
2018-05-21T21:24:48.326Z,3.03
2018-05-21T21:27:16.250Z,2.70
2018-05-21T21:29:44.405Z,3.00
2018-05-21T21:32:12.352Z,3.17
2018-05-21T21:34:40.276Z,2.60
2018-05-21T21:37:08.165Z,2.33
2018-05-21T21:39:36.117Z,2.97
2018-05-21T21:42:04.636Z,3.07
2018-05-21T21:44:32.634Z,2.80
2018-05-21T21:47:00.465Z,2.70
2018-05-21T21:49:28.583Z,3.20
2018-05-21T21:51:56.562Z,3.17
2018-05-21T21:54:24.502Z,3.30
2018-05-21T21:56:52.404Z,3.60
2018-05-21T21:59:20.341Z,2.80
2018-05-21T22:01:48.270Z,3.10
2018-05-21T22:04:16.221Z,2.70
2018-05-21T22:06:44.145Z,3.30
2018-05-21T22:09:12.122Z,2.70
2018-05-21T22:11:40.088Z,2.50
2018-05-21T22:14:08.039Z,3.30
2018-05-21T22:16:35.997Z,3.00
2018-05-21T22:19:03.888Z,3.03
2018-05-21T22:21:31.795Z,2.90
2018-05-21T22:23:59.715Z,2.60
2018-05-21T22:26:27.655Z,3.07
2018-05-21T22:28:55.557Z,3.27
2018-05-21T22:31:23.496Z,4.10
2018-05-21T22:33:51.402Z,3.00
2018-05-21T22:36:19.347Z,2.97
2018-05-21T22:38:47.286Z,3.10
2018-05-21T22:41:15.214Z,3.17
2018-05-21T22:43:43.131Z,3.13
2018-05-21T22:46:11.124Z,3.00
2018-05-21T22:48:39.100Z,3.27
2018-05-21T22:51:07.049Z,3.07
2018-05-21T22:53:34.964Z,3.10
2018-05-21T22:56:02.919Z,3.57
2018-05-21T22:58:30.887Z,2.97
2018-05-21T23:00:58.838Z,3.13
2018-05-21T23:03:26.759Z,3.10
2018-05-21T23:05:54.689Z,3.67
2018-05-21T23:08:22.658Z,2.80
2018-05-21T23:10:50.583Z,3.47
2018-05-21T23:13:18.514Z,2.73
2018-05-21T23:15:46.459Z,3.43
2018-05-21T23:18:14.395Z,3.03
2018-05-21T23:20:42.307Z,3.17
2018-05-21T23:23:10.246Z,3.50
2018-05-21T23:25:38.176Z,3.87
2018-05-21T23:28:06.113Z,4.03
2018-05-21T23:30:34.224Z,3.17
2018-05-21T23:33:02.142Z,3.40
2018-05-21T23:35:30.135Z,3.63
2018-05-21T23:37:58.051Z,3.23
2018-05-21T23:40:25.985Z,3.07
2018-05-21T23:42:53.893Z,3.03
2018-05-21T23:45:21.834Z,3.40
2018-05-21T23:47:49.774Z,3.77
2018-05-21T23:50:17.815Z,3.33
2018-05-21T23:52:45.753Z,3.43
2018-05-21T23:55:13.669Z,3.60
2018-05-21T23:57:41.575Z,3.60
